Veo, Iowa
Current Conditions -  °F | °C
As of 10:55 AM on Saturday 27 Dec 2014 (Local Time) from KFFL Reporting Station
Overcast Overcast  
Wind Chill: 21°   Ceiling: 1900
Heat Index: 32°   Visibility: 10mi
Dew Point: 27°   Wind: 17mph
Humidity: 80%   Direction: 290°WNW
Pressure: 30.15"   Gusts: 24mph
Location:  41.202°N, 91.9548°W
Report Text: KFFL 271655Z AUTO 29015G21KT 10SM OVC019 00/M03 A3015 RMK AO2
Loading
Personal Weather Stations






























Interactive Weather Map New forecast layout! Learn more

10-Day Weather Forecast

Advertisements
Track Severe Weather on mobile